地図

経路データ

SID SEASON NUMBER BASIN SUBBASIN NAME ISO_TIME NATURE LAT LON WMO_WIND WMO_PRES WMO_AGENCY TRACK_TYPE DIST2LAND LANDFALL IFLAG USA_AGENCY USA_ATCF_ID USA_LAT USA_LON USA_RECORD USA_STATUS USA_WIND USA_PRES USA_SSHS USA_R34_NE USA_R34_SE USA_R34_SW USA_R34_NW USA_R50_NE USA_R50_SE USA_R50_SW USA_R50_NW USA_R64_NE USA_R64_SE USA_R64_SW USA_R64_NW USA_POCI USA_ROCI USA_RMW USA_EYE TOKYO_LAT TOKYO_LON TOKYO_GRADE TOKYO_WIND TOKYO_PRES TOKYO_R50_DIR TOKYO_R50_LONG TOKYO_R50_SHORT TOKYO_R30_DIR TOKYO_R30_LONG TOKYO_R30_SHORT TOKYO_LAND CMA_LAT CMA_LON CMA_CAT CMA_WIND CMA_PRES HKO_LAT HKO_LON HKO_CAT HKO_WIND HKO_PRES NEWDELHI_LAT NEWDELHI_LON NEWDELHI_GRADE NEWDELHI_WIND NEWDELHI_PRES NEWDELHI_CI NEWDELHI_DP NEWDELHI_POCI REUNION_LAT REUNION_LON REUNION_TYPE REUNION_WIND REUNION_PRES REUNION_TNUM REUNION_CI REUNION_RMW REUNION_R34_NE REUNION_R34_SE REUNION_R34_SW REUNION_R34_NW REUNION_R50_NE REUNION_R50_SE REUNION_R50_SW REUNION_R50_NW REUNION_R64_NE REUNION_R64_SE REUNION_R64_SW REUNION_R64_NW BOM_LAT BOM_LON BOM_TYPE BOM_WIND BOM_PRES BOM_TNUM BOM_CI BOM_RMW BOM_R34_NE BOM_R34_SE BOM_R34_SW BOM_R34_NW BOM_R50_NE BOM_R50_SE BOM_R50_SW BOM_R50_NW BOM_R64_NE BOM_R64_SE BOM_R64_SW BOM_R64_NW BOM_ROCI BOM_POCI BOM_EYE BOM_POS_METHOD BOM_PRES_METHOD NADI_LAT NADI_LON NADI_CAT NADI_WIND NADI_PRES WELLINGTON_LAT WELLINGTON_LON WELLINGTON_WIND WELLINGTON_PRES DS824_LAT DS824_LON DS824_STAGE DS824_WIND DS824_PRES TD9636_LAT TD9636_LON TD9636_STAGE TD9636_WIND TD9636_PRES TD9635_LAT TD9635_LON TD9635_WIND TD9635_PRES TD9635_ROCI NEUMANN_LAT NEUMANN_LON NEUMANN_CLASS NEUMANN_WIND NEUMANN_PRES MLC_LAT MLC_LON MLC_CLASS MLC_WIND MLC_PRES USA_GUST BOM_GUST BOM_GUST_PER REUNION_GUST REUNION_GUST_PER USA_SEAHGT USA_SEARAD_NE USA_SEARAD_SE USA_SEARAD_SW USA_SEARAD_NW STORM_SPEED STORM_DIR
1921317N12138 1921 64 WP MM NOT_NAMED 1921-11-13 10:00:00 NR 12.1000 138.000 main 1330 1330 __________O___ -1 12.1000 138.000 3 8 351
1921317N12138 1921 64 WP MM NOT_NAMED 1921-11-13 12:00:00 NR 12.3535 137.953 main 1338 1327 __________P___ -1 12.3535 137.953 3 8 348
1921317N12138 1921 64 WP MM NOT_NAMED 1921-11-13 15:00:00 NR 12.7699 137.856 main 1332 1315 __________P___ -1 12.7699 137.856 3 10 345
1921317N12138 1921 64 WP MM NOT_NAMED 1921-11-13 18:00:00 NR 13.2793 137.692 main 1319 1301 __________P___ -1 13.2793 137.692 3 13 340
1921317N12138 1921 64 WP MM NOT_NAMED 1921-11-13 21:00:00 NR 13.9378 137.421 main 1301 1295 __________P___ -1 13.9378 137.421 3 15 338
1921317N12138 1921 64 WP MM NOT_NAMED 1921-11-13 22:00:00 NR 14.2000 137.300 main 1297 1275 __________O___ -1 14.2000 137.300 4 19 335
1921317N12138 1921 64 WP MM NOT_NAMED 1921-11-14 00:00:00 NR 14.7947 137.008 main 1277 1253 __________P___ -1 14.7947 137.008 4 22 334
1921317N12138 1921 64 WP MM NOT_NAMED 1921-11-14 03:00:00 NR 15.8253 136.491 main 1253 1242 __________P___ -1 15.8253 136.491 4 24 335
1921317N12138 1921 64 WP MM NOT_NAMED 1921-11-14 06:00:00 NR 16.9573 135.962 main 1251 1241 __________P___ -1 16.9573 135.962 4 25 338
1921317N12138 1921 64 WP MM NOT_NAMED 1921-11-14 09:00:00 NR 18.1186 135.515 main 1260 1265 __________P___ -1 18.1186 135.515 4 25 341
1921317N12138 1921 64 WP MM NOT_NAMED 1921-11-14 10:00:00 NR 18.5000 135.400 main 1274 1274 __________O___ -1 18.5000 135.400 4 23 345
1921317N12138 1921 64 WP MM NOT_NAMED 1921-11-14 12:00:00 NR 19.2253 135.210 main 1294 1270 __________P___ -1 19.2253 135.210 4 22 349
1921317N12138 1921 64 WP MM NOT_NAMED 1921-11-14 15:00:00 NR 20.3082 135.039 main 1270 1154 __________P___ -1 20.3082 135.039 4 22 355
1921317N12138 1921 64 WP MM NOT_NAMED 1921-11-14 18:00:00 NR 21.3660 135.026 main 1154 1058 __________P___ -1 21.3660 135.026 4 21 4
1921317N12138 1921 64 WP MM NOT_NAMED 1921-11-14 21:00:00 NR 22.3772 135.197 main 1058 1042 __________P___ -1 22.3772 135.197 4 20 11
1921317N12138 1921 64 WP MM NOT_NAMED 1921-11-14 22:00:00 NR 22.7000 135.300 main 1032 981 __________O___ -1 22.7000 135.300 4 21 19
1921317N12138 1921 64 WP MM NOT_NAMED 1921-11-15 00:00:00 NR 23.3466 135.560 main 986 917 __________P___ -1 23.3466 135.560 4 21 26
1921317N12138 1921 64 WP MM NOT_NAMED 1921-11-15 03:00:00 NR 24.2668 136.123 main 917 879 __________P___ -1 24.2668 136.123 4 21 33
1921317N12138 1921 64 WP MM NOT_NAMED 1921-11-15 06:00:00 NR 25.1131 136.835 main 879 854 __________P___ -1 25.1131 136.835 4 21 40
1921317N12138 1921 64 WP MM NOT_NAMED 1921-11-15 09:00:00 NR 25.8701 137.629 main 854 839 __________P___ -1 25.8701 137.629 4 21 44
1921317N12138 1921 64 WP MM NOT_NAMED 1921-11-15 10:00:00 NR 26.1000 137.900 main 839 806 __________O___ -1 26.1000 137.900 2 20 48
1921317N12138 1921 64 WP MM NOT_NAMED 1921-11-15 12:00:00 NR 26.5252 138.439 main 809 774 __________P___ -1 26.5252 138.439 2 19 50
1921317N12138 1921 64 WP MM NOT_NAMED 1921-11-15 15:00:00 NR 27.0898 139.241 main 774 761 __________P___ -1 27.0898 139.241 2 18 53
1921317N12138 1921 64 WP MM NOT_NAMED 1921-11-15 18:00:00 NR 27.5896 140.038 main 761 749 __________P___ -1 27.5896 140.038 2 17 56
1921317N12138 1921 64 WP MM NOT_NAMED 1921-11-15 21:00:00 NR 28.0506 140.834 main 749 743 __________P___ -1 28.0506 140.834 2 17 57
1921317N12138 1921 64 WP MM NOT_NAMED 1921-11-15 22:00:00 NR 28.2000 141.100 main 746 __________O___ -1 28.2000 141.100 2 17 57

デジタル台風データ・検索

IBTrACS Databaseについて

本データベースは、米国NOAAが公開する1842年以降の世界の熱帯低気圧のベストトラックデータアーカイブInternational Best Track Archive for Climate Stewardship (IBTrACS)を、ウェブで閲覧しやすい形式に変換したものです。

最終更新日:2021-12-08